SEASEATTLE-TACOMA INTL
METARs for nearby airports:
N 0 432' KSEA 200153Z 24004KT 10SM BKN070 OVC090 19/11 A3006
NE 4 32' KRNT 200153Z 00000KT 10SM OVC080 19/11 A3004
N 4 21' KBFI 200153Z 27003KT 10SM OVC075 19/11 A3005
SW 15 294' KTIW 200153Z 24003KT 10SM FEW038 FEW080 OVC100 17/13 A3006
W 18 444' KPWT 200209Z 00000KT 10SM -RA SCT022 SCT036 OVC044 16/14 A3006
S 19 322' KTCM 200158Z 29003KT 10SM FEW045 FEW080 OVC140 18/15 A3005
S 20 537' KPLU 200215Z 00000KT 10SM OVC041 18/14 A3006
SW 24 301' KGRF 200158Z 26008KT 10SM FEW140 18/16 A3005
N 27 607' KPAE 200153Z 36005KT 10SM BKN043 OVC100 16/12 A3007
W 36 272' KSHN 200153Z 24010KT 10SM -RA OVC100 16/13 A3003
SW 37 207' KOLM 200154Z 24007KT 10SM FEW050 17/12 A3006
N 43 141' KAWO 200156Z 32006KT 10SM BKN050 OVC095 17/13 A3006
SW 53 177' KCLS 200235Z 00000KT 10SM FEW075 SCT085 BKN120 17/14 A3008
N 55 47' KNUW 200156Z 00000KT 6SM HZ FEW030 BKN090 BKN250 14/12 A3010
NW 60 13' KNOW 200210Z 21003KT 10SM OVC022 14/14 A3006
N 61 145' KBVS 200235Z 00000KT 10SM FEW048 SCT065 OVC085 14/13 A3007
NW 62 291' KCLM 200153Z 00000KT 10SM -RA BKN020 OVC120 14/13 A3006
NW 70 112' KFHR 200153Z 00000KT 4SM -RA BR OVC075 13/12 A3007
SW 72 17' KHQM 200153Z 29008KT 6SM -RA BR SCT015 SCT047 OVC090 16/14 A3008
E 76 1763' KELN 200153Z 32014KT 10SM CLR 17/07 A2997
N 79 34' KORS 200235Z 00000KT 10SM -RA OVC060 14/14 A3005
N 81 171' KBLI 200153Z 00000KT 10SM FEW020 SCT030 BKN080 15/12 A3006
S 83 20' KKLS 200156Z 30006KT 10SM BKN045 18/13 A3008
NW 84 64' CYYJ 200200Z 00000KT 15SM FEW005 FEW016 BKN068 OVC100 13/13 A3006
E 85 1248' KEAT 200155Z 31012KT 10SM CLR 19/06 A2993
SE 89 1098' KYKM 200153Z 32013KT 10SM SCT080 19/06 A2996
W 95 193' KUIL 200212Z 00000KT 10SM SCT016 BKN023 OVC060 14/14 A3007
TAFs for nearby airports:
N 0 432' KSEA KSEA 192337Z 2000/2106 VRB04KT P6SM SCT035 BKN160 BKN250
  FM200400 18005KT P6SM BKN060
  FM200600 17004KT P6SM BKN060 OVC100
  FM201000 18003KT P6SM OVC030
  FM201400 18002KT P6SM OVC015
  FM202100 26005KT P6SM BKN025
N 4 21' KBFI TAF KBFI 192337Z 2000/2024 VRB06KT P6SM SCT040 BKN160 BKN250
  FM200400 16003KT P6SM BKN060
  FM201000 16004KT P6SM OVC035
  FM201400 15003KT P6SM OVC015
  FM202100 27004KT P6SM OVC025
W 18 444' KPWT TAF
  AMD KPWT 200211Z 2002/2024 00000KT P6SM SCT020 OVC040
  TEMPO 2002/2006 -RA BKN020 OVC040
  FM200800 00000KT P6SM OVC030
  FM201100 VRB03KT P6SM OVC015
  FM202200 17003KT P6SM OVC025
S 19 322' KTCM TAF KTCM 192100Z 1921/2103 26006KT 9999 SCT040 BKN200 QNH3004INS
  BECMG 2002/2003 VRB06KT 9999 BKN060 OVC200 QNH3002INS
  BECMG 2005/2006 VRB06KT 9999 BKN020 QNH3005INS
  BECMG 2010/2011 VRB06KT 9999 OVC015 QNH3004INS
  BECMG 2017/2018 20006KT 9999 BKN020 OVC050 QNH3006INS
  BECMG 2020/2021 21009KT 9999 SCT020 BKN035 QNH3009INS TX20/1923Z TN10/2013Z
SW 24 301' KGRF TAF TAF KGRF 192109Z 1921/2103 VRB06KT 9999 SCT030 BKN050 BKN170 QNH3003INS
  BECMG 2007/2008 VRB06KT 9999 BKN010 QNH3003INS
  BECMG 2011/2012 VRB06KT 4800 BR BKN006 QNH3005INS
  BECMG 2017/2018 VRB06KT 9999 BKN010 QNH3009INS
  BECMG 2018/2019 VRB06KT 9999 SCT015 BKN030 BKN100 QNH3008INS TX20/1923Z TN10/2013Z
N 27 607' KPAE TAF KPAE 192337Z 2000/2024 26005KT P6SM SCT050 BKN200
  FM200200 VRB04KT P6SM OVC060
  FM200900 36004KT P6SM OVC035
  FM201200 35002KT P6SM OVC015
  FM202200 28005KT P6SM OVC025
SW 37 207' KOLM KOLM 192337Z 2000/2024 18006KT P6SM FEW030 BKN080 BKN100
  FM200300 21004KT P6SM OVC060
  FM200700 20003KT P6SM OVC035
  FM200900 20004KT P6SM OVC020
  FM201300 20002KT 6SM BR OVC015
  FM202100 26004KT P6SM OVC025
N 55 47' KNUW TAF COR KNUW 1923/2023 VRB06KT 9999 VCSH FEW010 SCT025 BKN100 BKN250 QNH3007INS
  TEMPO 2001/2006 00000KT 4800 -RA BR BKN012 OVC020
  BECMG 2010/2012 VRB06KT 4800 BR SCT005 OVC010 QNH3005INS
  TEMPO 2012/2018 2400 -DZ BR OVC005
  FM202200 VRB06KT 9999 VCFG SCT010 BKN035 QNH3009INS T20/1923Z T13/2013Z COR 0055 FS30143
NW 62 291' KCLM KCLM 192337Z 2000/2024 32005KT P6SM VCSH BKN020 BKN080 OVC100
  FM200300 31006KT P6SM OVC050
  FM201100 26005KT P6SM OVC030
  FM201200 26004KT P6SM OVC015
  FM202200 35005KT P6SM OVC025
SW 72 17' KHQM TAF
  AMD KHQM 200215Z 2002/2024 29008KT P6SM -RA SCT015 SCT045 OVC090
  TEMPO 2002/2004 5SM -RA BR BKN015 OVC045
  FM200600 26005KT P6SM BKN015 BKN030 PROB30 2011/2014 -RA
N 81 171' KBLI KBLI 192337Z 2000/2024 VRB06KT P6SM SCT060 BKN110
  FM200200 18004KT P6SM BKN060 OVC120
  FM201100 18004KT P6SM OVC025
  FM201500 18002KT P6SM OVC015
E 85 1248' KEAT TAF COR KEAT 192352Z 2000/2024 30008KT P6SM BKN200
  FM200600 30008KT P6SM OVC120
  FM201300 29008KT P6SM SCT200
  FM202000 VRB05KT P6SM SKC
SE 89 1098' KYKM TAF KYKM 192326Z 2000/2024 31006KT P6SM BKN080
  FM200300 32006KT P6SM BKN150
  FM200900 29005KT P6SM OVC120
  FM202100 31007KT P6SM BKN070
Area forecast:
000
FAUS46 KKCI 101945
FA6W  
SFOC FA 101945
SYNOPSIS AND VFR CLDS/WX
SYNOPSIS VALID UNTIL 111400
CLDS/WX VALID UNTIL 110800...OTLK VALID 110800-111400
WA OR CA AND CSTL WTRS
.
SEE AIRMET SIERRA FOR IFR CONDS AND MTN OBSCN.
TS IMPLY SEV OR GTR TURB SEV ICE LLWS AND IFR CONDS.
NON MSL HGTS DENOTED BY AGL OR CIG.
.
SYNOPSIS...UPR LVL TROF WAS LOCATED NR 130W. MOIST SWLY FLOW
EXTDS FROM PAC NW EWD INTO NRN ROCKIES. HIGH PRES RIDGE WAS OVR
MUCH OF THE REST OF THE AREA. BY 14Z...UPR LVL TROF WILL EXTD
FROM WA-OR SWD INTO CA.  ..STREIB..
.
WA CASCDS WWD
CSTL SXNS
CSTLN-INLAND...SCT-BKN025 BKN035-050 TOPS 120-140. ISOL -SHRA.
   OTLK...MVFR CIGS SHRA BR.
PUGET SOUND-INTR VLY...SCT-BKN020 BKN-OVC035-050 TOPS 160 BKN CI.
   WDLY SCT -SHRA. OTLK...MVFR CIGS SHRA.
CASCDS...BKN-OVC050-070 TOPS FL180. BKN CI ABV. WDLY SCT -SHRA.
   OTLK...MVFR CIGS SHRA.
.
WA E OF CASCDS
CNTRL WA...SCT140 OVC CI. BECMG 2302 SCT080 BKN120 LYRD FL240.
   OTLK...VFR.
ERN WA...SCT-BKN140-160 LYRD FL240. BECMG 0508 BKN080 OVC120
   LYRD FL240 ISOL -SHRA DVLPG. OTLK...VFR.
.
OR CASCDS WWD
CSTL SXNS
CSTLN-INLAND...SCT-BKN020 BKN-OVC035-050 TOPS FL180. WDLY SCT
   -SHRA. OTLK...MVFR CIGS SHRA.
WILLAMETTE VLY/SWRN INTR...SCT-BKN020 BKN-OVC035-050 TOPS FL180.
   WDLY SCT -SHRA. OTLK...MVFR CIGS SHRA.
CASCDS...SCT-BKN060 BKN-OVC080-100 TOPS FL180 ISOL -SHRA.
   OTLK...MVFR CIGS SHRA.
.
OR E OF CASCDS
CNTRL...SCT100-120 BKN150 LYRD FL240. OTLK...VFR.
ERN...SCT130-150 BKN CI. BECMG 0205 OVC120-140 LYRD FL240.
   OTLK...VFR.
.
NRN CA...STS-SAC-TVL LN NWD
CSTL SXNS...
   FOT NWD...SCT025 BKN CI ABV. BECMG 0205 SCT020 OVC050 TOPS
      160. ISOL -SHRA. OTLK...IFR CIGS.
   S OF FOT...SCT-BKN010 TOPS 030-040. OTLK...IFR CIGS.
REST OF AREA...SKC OCNL SCT CI. OCNL VYS 3-5SM FU HZ.
   OTLK...VFR.
SAC VLY...
   NRN AND CNTRL SXNS...SKC. OTLK...VFR.
   SRN SXNS...SKC. OCNL VIS 3-5SM FU HZ. OTLK...MVFR FU HZ.
SHASTA-SISKIYOUS-NERN CA...
NRN SIERRAS...SKC OCNL SCT CI. WINDS SLY G25KT. OTLK...VFR WIND.
.
CNTRL CA
CSTL SXNS...
   CSTLN...SKC OCNL SCT010. BECMG 0508 OCNL CIGS BKN-SCT010 TOPS
      020-030. OTLK...IFR CIGS.
   INLAND...SKC. OTLK...VFR BECMG 1114 IFR CIGS BR.
SAN JOAQUIN VLY...SKC. OTLK...VFR.
SRN SIERRAS..SKC. OTLK...VFR.
.
SRN CA..VBG-NID-60NNW BIH LN SWD
CSTL SXNS...
   CSTLN...
      EXTRM SRN SXNS...SKC. BECMG 0205 SCT010. BECMG 0508 CIGS
         BKN-OVC010 TOPS 030. OTLK...IFR CIGS.
      REST OF AREA...SKC. OTLK...VFR BECMG 0811 IFR CIGS BR.
   INLAND...SKC OCNL FEW CI. OTLK...VFR.
INTR MTNS-MOJAVE-SRN DESERTS...SKC OCNL FEW CI. OTLK...VFR.
.
CSTL WTRS
WA...SCT-BKN035-050 TOPS 100-120. ISOL -SHRA. OTLK...VFR.
OR...
NWRN HLF...SCT-BKN035-050 TOPS 100-120. ISOL -SHRA. OTLK...VFR.
SERN HLF...SCT-BKN025 BKN035-050 TOPS FL180 BKN CI ABV. WDLY SCT
   -SHRA. OTLK...MVFR CIGS SHRA.
CA...
NRN CA...
   FOT NWD...SCT025 BKN CI ABV. BECMG 0205 SCT020 OVC050 TOPS
      160. ISOL -SHRA. OTLK...IFR CIGS.
   S OF FOT...SCT-BKN010 TOPS 030-040. OTLK...IFR CIGS.
CNTRL CA...SCT-BKN010 TOPS 030-040. OTLK...IFR CIGS.
SRN CA...
   OUTER CSTL WTRS...CIGS BKN010-020 TOPS 030-050.
      OTLK...IFR CIGS.
   ADJ CSTL WTRS...SKC. OCNL AGL SCT010. OTLK...VFR BECMG 0811
      IFR CIGS BR.
.
THE AREA FORECAST WILL TERMINATE AT 2359Z ON 10 OCTOBER 2017. IN
PLACE OF THE AREA FORECAST...PLEASE SEE THE GRAPHICAL FORECAST AT
WWW.AVIATIONWEATHER.GOV/GFA. GRAPHICAL AND TEXT AIRMETS WILL
CONTINUE AS REGULARLY SCHEDULED.
....

Shortcut to this page: http://wxbay.com.

Data may contain errors.